createdAt,value
2019-05-23T00:00:47.056Z,19.12
2019-05-23T00:03:55.604Z,12.60
2019-05-23T00:06:44.839Z,17.90
2019-05-23T00:09:33.112Z,18.15
2019-05-23T00:12:22.595Z,18.67
2019-05-23T00:15:15.224Z,12.90
2019-05-23T00:17:45.725Z,16.90
2019-05-23T00:20:16.292Z,13.43
2019-05-23T00:22:46.002Z,15.03
2019-05-23T00:25:17.461Z,13.13
2019-05-23T00:27:48.531Z,12.23
2019-05-23T00:30:24.845Z,14.55
2019-05-23T00:32:56.174Z,15.18
2019-05-23T00:35:26.555Z,16.17
2019-05-23T00:37:56.638Z,18.57
2019-05-23T00:40:28.018Z,15.28
2019-05-23T00:42:58.153Z,15.28
2019-05-23T00:45:29.104Z,14.47
2019-05-23T00:48:00.285Z,14.33
2019-05-23T00:50:32.551Z,17.40
2019-05-23T00:53:02.737Z,17.23
2019-05-23T00:55:32.451Z,15.48
2019-05-23T00:58:02.147Z,15.93
2019-05-23T01:00:32.450Z,14.63
2019-05-23T01:03:02.710Z,11.88
2019-05-23T01:05:32.378Z,14.03
2019-05-23T01:08:02.571Z,14.38
2019-05-23T01:10:33.423Z,15.32
2019-05-23T01:13:03.967Z,11.53
2019-05-23T01:15:35.147Z,13.08
2019-05-23T01:18:06.494Z,18.65
2019-05-23T01:21:10.330Z,15.83
2019-05-23T01:23:41.943Z,12.58
2019-05-23T01:26:12.492Z,11.73
2019-05-23T01:28:42.644Z,12.40
2019-05-23T01:31:16.659Z,11.48
2019-05-23T01:33:47.098Z,14.58
2019-05-23T01:36:16.759Z,17.10
2019-05-23T01:38:46.713Z,14.75
2019-05-23T01:41:16.999Z,13.00
2019-05-23T01:43:46.653Z,13.00
2019-05-23T01:46:16.423Z,13.20
2019-05-23T01:48:46.557Z,10.60
2019-05-23T01:51:16.658Z,11.88
2019-05-23T01:53:47.859Z,13.50
2019-05-23T01:56:18.364Z,13.70
2019-05-23T01:58:48.938Z,11.90
2019-05-23T02:01:18.614Z,14.50
2019-05-23T02:03:48.308Z,11.60
2019-05-23T02:06:18.047Z,12.65
2019-05-23T02:08:47.899Z,12.28
2019-05-23T02:11:19.414Z,15.80
2019-05-23T02:13:50.567Z,11.28
2019-05-23T02:16:21.441Z,12.43
2019-05-23T02:18:51.231Z,11.25
2019-05-23T02:21:20.919Z,12.35
2019-05-23T02:23:50.560Z,9.18
2019-05-23T02:26:22.288Z,10.05
2019-05-23T02:28:52.464Z,10.25
2019-05-23T02:31:22.212Z,11.35
2019-05-23T02:33:51.979Z,10.35
2019-05-23T02:36:21.954Z,12.15
2019-05-23T02:39:09.557Z,12.55
2019-05-23T02:41:55.186Z,11.25
2019-05-23T02:44:28.080Z,12.18
2019-05-23T02:47:01.186Z,12.00
2019-05-23T02:49:33.774Z,11.08
2019-05-23T02:52:23.156Z,12.30
2019-05-23T02:54:54.099Z,9.70
2019-05-23T02:57:26.691Z,11.20
2019-05-23T02:59:59.444Z,10.70
2019-05-23T03:02:58.624Z,14.38
2019-05-23T03:05:32.228Z,13.48
2019-05-23T03:08:03.845Z,12.23
2019-05-23T03:10:50.878Z,14.45
2019-05-23T03:13:21.581Z,12.43
2019-05-23T03:15:51.573Z,13.75
2019-05-23T03:18:23.349Z,13.28
2019-05-23T03:20:54.400Z,10.82
2019-05-23T03:23:24.250Z,11.53
2019-05-23T03:26:18.769Z,12.05
2019-05-23T03:28:49.505Z,13.50
2019-05-23T03:31:32.694Z,11.00
2019-05-23T03:34:02.218Z,9.90
2019-05-23T03:36:33.466Z,11.05
2019-05-23T03:39:06.881Z,9.78
2019-05-23T03:41:37.891Z,10.32
2019-05-23T03:44:08.806Z,12.35
2019-05-23T03:46:42.561Z,17.12
2019-05-23T03:49:13.850Z,11.25
2019-05-23T03:51:43.559Z,11.22
2019-05-23T03:54:13.336Z,11.35
2019-05-23T03:56:44.920Z,13.35
2019-05-23T03:59:15.616Z,15.50
2019-05-23T04:01:49.083Z,11.20
2019-05-23T04:04:18.399Z,14.68
2019-05-23T04:06:49.280Z,10.85
2019-05-23T04:09:19.068Z,12.53
2019-05-23T04:11:48.821Z,12.20
2019-05-23T04:14:19.352Z,15.83
2019-05-23T04:16:49.180Z,10.58
2019-05-23T04:19:18.850Z,10.08
2019-05-23T04:21:48.703Z,12.18
2019-05-23T04:24:18.365Z,9.08
2019-05-23T04:26:48.042Z,11.28
2019-05-23T04:29:18.693Z,12.70
2019-05-23T04:32:06.278Z,12.58
2019-05-23T04:34:19.801Z,10.72
2019-05-23T04:36:49.491Z,14.03
2019-05-23T04:39:19.200Z,17.32
2019-05-23T04:41:48.852Z,9.80
2019-05-23T04:44:19.829Z,10.50
2019-05-23T04:46:50.140Z,9.85
2019-05-23T04:49:19.967Z,11.78
2019-05-23T04:51:49.937Z,10.95
2019-05-23T04:54:19.747Z,13.35
2019-05-23T04:56:49.642Z,10.48
2019-05-23T04:59:20.886Z,11.90
2019-05-23T05:01:50.605Z,13.95
2019-05-23T05:04:21.212Z,10.30
2019-05-23T05:06:50.964Z,12.37
2019-05-23T05:09:25.685Z,9.23
2019-05-23T05:11:55.513Z,13.58
2019-05-23T05:14:26.778Z,13.88
2019-05-23T05:16:56.838Z,13.38
2019-05-23T05:19:26.966Z,11.63
2019-05-23T05:21:56.755Z,9.90
2019-05-23T05:24:26.434Z,10.05
2019-05-23T05:26:56.082Z,12.80
2019-05-23T05:29:25.768Z,10.95
2019-05-23T05:31:55.871Z,13.58
2019-05-23T05:34:25.850Z,11.70
2019-05-23T05:36:55.713Z,11.53
2019-05-23T05:39:27.808Z,10.68
2019-05-23T05:41:57.708Z,13.50
2019-05-23T05:44:27.504Z,11.35
2019-05-23T05:46:57.217Z,11.55
2019-05-23T05:49:27.859Z,9.58
2019-05-23T05:51:57.526Z,13.03
2019-05-23T05:54:27.817Z,9.68
2019-05-23T05:56:57.529Z,11.28
2019-05-23T05:59:27.428Z,8.25
2019-05-23T06:01:57.528Z,13.32
2019-05-23T06:04:27.226Z,9.78
2019-05-23T06:07:31.242Z,8.80
2019-05-23T06:10:02.633Z,8.58
2019-05-23T06:12:32.337Z,9.25
2019-05-23T06:15:03.509Z,8.75
2019-05-23T06:17:33.686Z,10.80
2019-05-23T06:20:03.551Z,14.47
2019-05-23T06:22:33.572Z,10.60
2019-05-23T06:25:04.607Z,10.45
2019-05-23T06:27:36.569Z,13.40
2019-05-23T06:30:08.479Z,9.30
2019-05-23T06:32:38.423Z,8.70
2019-05-23T06:35:08.409Z,8.80
2019-05-23T06:37:38.216Z,7.85
2019-05-23T06:40:08.858Z,8.98
2019-05-23T06:42:38.607Z,7.33
2019-05-23T06:45:08.622Z,8.90
2019-05-23T06:47:39.433Z,7.47
2019-05-23T06:50:11.336Z,11.15
2019-05-23T06:52:41.306Z,7.47
2019-05-23T06:55:11.281Z,6.78
2019-05-23T06:57:42.154Z,9.00
2019-05-23T07:00:13.153Z,12.70
2019-05-23T07:02:44.010Z,9.03
2019-05-23T07:05:15.212Z,10.23
2019-05-23T07:07:44.955Z,9.10
2019-05-23T07:10:14.719Z,11.60
2019-05-23T07:12:44.411Z,9.50
2019-05-23T07:15:14.190Z,12.07
2019-05-23T07:17:43.894Z,10.88
2019-05-23T07:20:14.068Z,12.68
2019-05-23T07:22:43.853Z,11.05
2019-05-23T07:25:13.584Z,10.13
2019-05-23T07:27:43.787Z,11.05
2019-05-23T07:30:15.957Z,12.23
2019-05-23T07:32:45.653Z,10.50
2019-05-23T07:35:15.444Z,11.00
2019-05-23T07:37:45.337Z,12.82
2019-05-23T07:40:15.141Z,15.25
2019-05-23T07:42:44.851Z,10.95
2019-05-23T07:45:19.782Z,11.55
2019-05-23T07:47:49.500Z,15.65
2019-05-23T07:50:19.165Z,12.98
2019-05-23T07:52:48.903Z,13.22
2019-05-23T07:55:24.233Z,12.85
2019-05-23T07:57:54.188Z,13.48
2019-05-23T08:00:28.471Z,11.65
2019-05-23T08:03:00.115Z,17.48
2019-05-23T08:05:30.111Z,11.40
2019-05-23T08:07:59.822Z,13.72
2019-05-23T08:10:33.630Z,17.77
2019-05-23T08:13:00.853Z,16.07
2019-05-23T08:15:31.047Z,13.68
2019-05-23T08:18:01.092Z,16.05
2019-05-23T08:20:35.874Z,16.07
2019-05-23T08:23:05.554Z,14.93
2019-05-23T08:25:35.204Z,15.38
2019-05-23T08:28:06.197Z,13.58
2019-05-23T08:30:35.892Z,14.85
2019-05-23T08:33:06.977Z,12.40
2019-05-23T08:35:36.861Z,16.17
2019-05-23T08:38:07.987Z,15.13
2019-05-23T08:40:39.661Z,16.30
2019-05-23T08:43:09.312Z,19.80
2019-05-23T08:45:39.001Z,13.48
2019-05-23T08:48:08.703Z,15.60
2019-05-23T08:50:38.365Z,14.95
2019-05-23T08:53:08.162Z,12.25
2019-05-23T08:55:37.951Z,14.85
2019-05-23T08:58:09.347Z,12.18
2019-05-23T09:00:40.668Z,9.93
2019-05-23T09:03:10.766Z,10.05
2019-05-23T09:05:40.490Z,10.95
2019-05-23T09:08:11.099Z,11.18
2019-05-23T09:10:40.937Z,11.48
2019-05-23T09:13:11.744Z,12.13
2019-05-23T09:15:41.524Z,12.50
2019-05-23T09:18:11.602Z,11.75
2019-05-23T09:20:41.838Z,10.78
2019-05-23T09:23:11.631Z,13.60
2019-05-23T09:25:41.561Z,11.15
2019-05-23T09:28:12.743Z,11.00
2019-05-23T09:30:42.426Z,9.33
2019-05-23T09:33:12.132Z,8.75
2019-05-23T09:35:42.083Z,8.10
2019-05-23T09:38:11.790Z,8.53
2019-05-23T09:40:41.454Z,10.75
2019-05-23T09:43:11.695Z,11.00
2019-05-23T09:45:41.381Z,7.17
2019-05-23T09:48:11.027Z,8.13
2019-05-23T09:50:40.730Z,8.08
2019-05-23T09:53:10.411Z,9.03
2019-05-23T09:55:40.092Z,6.70
2019-05-23T09:58:09.801Z,8.23
2019-05-23T10:00:41.221Z,7.12
2019-05-23T10:03:11.297Z,7.00
2019-05-23T10:05:43.900Z,8.50
2019-05-23T10:08:12.467Z,9.83
2019-05-23T10:10:42.303Z,7.78
2019-05-23T10:13:12.188Z,9.93
2019-05-23T10:15:53.820Z,7.65
2019-05-23T10:18:23.519Z,6.62
2019-05-23T10:20:53.232Z,10.85
2019-05-23T10:23:22.928Z,8.45
2019-05-23T10:25:52.649Z,10.60
2019-05-23T10:28:22.437Z,7.62
2019-05-23T10:30:52.178Z,11.70
2019-05-23T10:33:21.910Z,10.23
2019-05-23T10:36:00.483Z,6.70
2019-05-23T10:38:22.939Z,7.70
2019-05-23T10:40:52.728Z,7.83
2019-05-23T10:43:22.436Z,7.83
2019-05-23T10:45:52.159Z,7.60
2019-05-23T10:48:22.479Z,7.45
2019-05-23T10:50:52.269Z,6.37
2019-05-23T10:53:22.580Z,5.22
2019-05-23T10:55:52.277Z,7.42
2019-05-23T10:58:22.031Z,6.10
2019-05-23T11:00:52.661Z,6.42
2019-05-23T11:03:23.225Z,7.67
2019-05-23T11:05:52.969Z,9.13
2019-05-23T11:08:28.353Z,5.87
2019-05-23T11:10:54.174Z,6.22
2019-05-23T11:13:25.480Z,7.85
2019-05-23T11:15:55.177Z,6.83
2019-05-23T11:18:25.198Z,7.03
2019-05-23T11:20:54.986Z,6.42
2019-05-23T11:23:29.236Z,8.10
2019-05-23T11:26:01.420Z,9.20
2019-05-23T11:28:31.702Z,7.33
2019-05-23T11:31:01.855Z,6.50
2019-05-23T11:33:32.721Z,7.35
2019-05-23T11:36:02.662Z,9.80
2019-05-23T11:38:32.642Z,6.72
2019-05-23T11:41:02.435Z,8.73
2019-05-23T11:43:32.121Z,8.48
2019-05-23T11:46:21.425Z,7.53
2019-05-23T11:48:51.843Z,8.25
2019-05-23T11:51:25.170Z,7.45
2019-05-23T11:54:06.629Z,6.00
2019-05-23T11:56:24.604Z,8.33
2019-05-23T11:58:54.572Z,7.78
2019-05-23T12:01:49.794Z,6.20
2019-05-23T12:04:25.869Z,5.50
2019-05-23T12:06:59.504Z,8.53
2019-05-23T12:09:30.342Z,7.92
2019-05-23T12:12:00.049Z,7.78
2019-05-23T12:14:29.815Z,6.78
2019-05-23T12:16:59.665Z,7.45
2019-05-23T12:19:29.597Z,6.78
2019-05-23T12:21:59.271Z,6.17
2019-05-23T12:24:29.029Z,5.20
2019-05-23T12:26:58.787Z,9.38
2019-05-23T12:29:29.425Z,6.03
2019-05-23T12:31:59.099Z,6.17
2019-05-23T12:34:28.910Z,10.08
2019-05-23T12:37:16.910Z,7.65
2019-05-23T12:39:30.084Z,5.87
2019-05-23T12:41:59.796Z,4.35
2019-05-23T12:44:29.592Z,3.62
2019-05-23T12:47:00.047Z,4.87
2019-05-23T12:49:42.886Z,4.53
2019-05-23T12:52:14.075Z,5.45
2019-05-23T12:54:43.893Z,4.75
2019-05-23T12:57:14.680Z,5.22
2019-05-23T12:59:44.568Z,5.33
2019-05-23T13:02:20.770Z,6.40
2019-05-23T13:04:50.720Z,4.37
2019-05-23T13:07:35.132Z,5.35
2019-05-23T13:09:51.703Z,6.60
2019-05-23T13:12:21.454Z,5.30
2019-05-23T13:14:56.038Z,5.15
2019-05-23T13:17:22.403Z,4.45
2019-05-23T13:19:52.282Z,7.25
2019-05-23T13:22:22.198Z,4.17
2019-05-23T13:24:53.468Z,4.12
2019-05-23T13:27:23.770Z,3.35
2019-05-23T13:29:53.494Z,4.78
2019-05-23T13:32:23.169Z,4.12
2019-05-23T13:34:52.914Z,4.25
2019-05-23T13:37:24.093Z,2.50
2019-05-23T13:39:53.857Z,3.15
2019-05-23T13:42:24.603Z,3.05
2019-05-23T13:44:54.504Z,3.70
2019-05-23T13:47:24.239Z,4.22
2019-05-23T13:49:53.986Z,3.02
2019-05-23T13:52:23.655Z,4.37
2019-05-23T13:54:53.403Z,4.42
2019-05-23T13:57:23.170Z,3.83
2019-05-23T13:59:52.977Z,4.60
2019-05-23T14:02:22.880Z,3.25
2019-05-23T14:04:53.829Z,3.35
2019-05-23T14:07:23.678Z,3.37
2019-05-23T14:09:53.601Z,5.37
2019-05-23T14:12:24.496Z,6.28
2019-05-23T14:14:54.415Z,3.87
2019-05-23T14:17:29.476Z,4.00
2019-05-23T14:19:59.410Z,7.47
2019-05-23T14:22:30.962Z,3.92
2019-05-23T14:25:01.924Z,2.45
2019-05-23T14:27:38.293Z,2.67
2019-05-23T14:30:15.260Z,2.90
2019-05-23T14:32:50.849Z,3.95
2019-05-23T14:35:25.845Z,2.58
2019-05-23T14:37:57.075Z,3.05
2019-05-23T14:40:26.927Z,2.67
2019-05-23T14:43:11.669Z,2.12
2019-05-23T14:45:55.404Z,2.47
2019-05-23T14:48:47.431Z,3.55
2019-05-23T14:51:32.226Z,2.52
2019-05-23T14:54:07.300Z,2.12
2019-05-23T14:56:39.420Z,3.72
2019-05-23T14:59:09.320Z,2.35
2019-05-23T15:01:39.364Z,2.83
2019-05-23T15:04:09.700Z,2.60
2019-05-23T15:06:39.931Z,2.50
2019-05-23T15:09:10.019Z,3.02
2019-05-23T15:11:40.303Z,2.45
2019-05-23T15:14:10.520Z,3.30
2019-05-23T15:16:40.391Z,3.08
2019-05-23T15:19:10.246Z,2.47
2019-05-23T15:21:40.438Z,7.70
2019-05-23T15:24:10.602Z,5.35
2019-05-23T15:26:40.303Z,3.98
2019-05-23T15:29:10.069Z,3.72
2019-05-23T15:31:39.820Z,5.00
2019-05-23T15:34:09.561Z,4.28
2019-05-23T15:36:39.234Z,2.20
2019-05-23T15:39:10.496Z,2.47
2019-05-23T15:41:40.303Z,3.10
2019-05-23T15:44:23.864Z,9.60
2019-05-23T15:46:41.508Z,5.22
2019-05-23T15:49:12.741Z,20.27
2019-05-23T15:51:54.031Z,5.83
2019-05-23T15:54:31.689Z,3.25
2019-05-23T15:57:09.168Z,3.40
2019-05-23T15:59:46.878Z,3.58
2019-05-23T16:02:35.664Z,2.50
2019-05-23T16:05:07.449Z,3.10
2019-05-23T16:07:37.780Z,4.22
2019-05-23T16:10:11.201Z,2.10
2019-05-23T16:12:40.945Z,1.92
2019-05-23T16:15:10.788Z,3.08
2019-05-23T16:17:40.669Z,2.92
2019-05-23T16:20:10.559Z,2.22
2019-05-23T16:22:40.238Z,4.90
2019-05-23T16:25:10.117Z,2.30
2019-05-23T16:27:39.822Z,2.75
2019-05-23T16:30:09.721Z,2.55
2019-05-23T16:32:39.531Z,3.42
2019-05-23T16:35:09.383Z,3.67
2019-05-23T16:37:39.085Z,4.20
2019-05-23T16:40:09.000Z,4.15
2019-05-23T16:42:38.697Z,2.60
2019-05-23T16:45:09.352Z,3.50
2019-05-23T16:47:39.264Z,2.40
2019-05-23T16:50:09.105Z,3.00
2019-05-23T16:52:38.798Z,3.17
2019-05-23T16:55:23.492Z,3.52
2019-05-23T16:57:57.403Z,2.87
2019-05-23T17:00:44.975Z,3.33
2019-05-23T17:03:39.797Z,3.75
2019-05-23T17:06:21.066Z,3.80
2019-05-23T17:09:08.428Z,4.03
2019-05-23T17:11:45.489Z,4.72
2019-05-23T17:14:20.952Z,4.85
2019-05-23T17:16:57.707Z,3.55
2019-05-23T17:19:36.669Z,3.92
2019-05-23T17:22:28.481Z,4.35
2019-05-23T17:25:15.928Z,6.17
2019-05-23T17:27:51.605Z,5.15
2019-05-23T17:30:43.441Z,4.15
2019-05-23T17:33:13.971Z,2.62
2019-05-23T17:35:43.702Z,4.85
2019-05-23T17:38:13.629Z,2.98
2019-05-23T17:40:43.723Z,4.00
2019-05-23T17:43:13.801Z,3.98
2019-05-23T17:45:44.713Z,3.55
2019-05-23T17:48:14.462Z,4.58
2019-05-23T17:50:46.137Z,2.90
2019-05-23T17:53:15.985Z,3.55
2019-05-23T17:55:49.256Z,3.80
2019-05-23T17:58:22.595Z,3.05
2019-05-23T18:00:53.353Z,3.35
2019-05-23T18:03:23.154Z,1.92
2019-05-23T18:05:55.590Z,2.60
2019-05-23T18:08:28.173Z,2.42
2019-05-23T18:10:58.868Z,3.95
2019-05-23T18:13:29.077Z,1.82
2019-05-23T18:15:59.170Z,2.62
2019-05-23T18:18:29.692Z,2.80
2019-05-23T18:21:00.646Z,3.45
2019-05-23T18:23:37.684Z,2.00
2019-05-23T18:26:08.244Z,2.98
2019-05-23T18:28:38.904Z,2.67
2019-05-23T18:31:14.865Z,1.67
2019-05-23T18:33:46.513Z,1.80
2019-05-23T18:36:17.368Z,1.85
2019-05-23T18:38:47.796Z,1.95
2019-05-23T18:41:18.011Z,1.50
2019-05-23T18:43:48.780Z,1.65
2019-05-23T18:46:24.265Z,2.27
2019-05-23T18:48:55.232Z,2.45
2019-05-23T18:51:25.113Z,1.98
2019-05-23T18:53:57.646Z,2.87
2019-05-23T18:56:27.476Z,2.00
2019-05-23T18:58:58.111Z,3.12
2019-05-23T19:01:29.617Z,2.05
2019-05-23T19:04:00.108Z,1.65
2019-05-23T19:06:30.339Z,2.02
2019-05-23T19:09:00.076Z,2.08
2019-05-23T19:11:30.487Z,2.22
2019-05-23T19:14:00.459Z,2.15
2019-05-23T19:16:31.243Z,2.90
2019-05-23T19:19:01.216Z,3.47
2019-05-23T19:21:33.603Z,3.55
2019-05-23T19:24:03.482Z,6.62
2019-05-23T19:26:33.763Z,6.80
2019-05-23T19:29:04.340Z,3.30
2019-05-23T19:31:34.719Z,3.77
2019-05-23T19:34:04.545Z,2.92
2019-05-23T19:36:34.501Z,7.30
2019-05-23T19:39:05.582Z,5.17
2019-05-23T19:41:37.783Z,6.05
2019-05-23T19:44:07.354Z,5.15
2019-05-23T19:46:37.288Z,21.87
2019-05-23T19:49:08.814Z,26.33
2019-05-23T19:51:39.884Z,5.45
2019-05-23T19:54:10.086Z,5.47
2019-05-23T19:56:39.985Z,4.87
2019-05-23T19:59:09.882Z,4.50
2019-05-23T20:02:17.384Z,5.35
2019-05-23T20:04:57.470Z,7.65
2019-05-23T20:07:27.449Z,2.83
2019-05-23T20:09:57.924Z,3.00
2019-05-23T20:12:28.101Z,3.00
2019-05-23T20:14:59.132Z,6.83
2019-05-23T20:17:29.069Z,4.45
2019-05-23T20:20:01.637Z,3.80
2019-05-23T20:22:32.481Z,3.77
2019-05-23T20:25:02.205Z,5.40
2019-05-23T20:27:34.422Z,5.53
2019-05-23T20:30:05.353Z,2.33
2019-05-23T20:32:35.417Z,5.47
2019-05-23T20:35:05.330Z,4.75
2019-05-23T20:37:35.822Z,2.50
2019-05-23T20:40:05.921Z,3.60
2019-05-23T20:42:35.920Z,3.45
2019-05-23T20:45:05.871Z,2.95
2019-05-23T20:47:36.257Z,2.80
2019-05-23T20:50:06.083Z,2.22
2019-05-23T20:52:35.855Z,3.25
2019-05-23T20:55:05.709Z,3.92
2019-05-23T20:57:35.411Z,2.83
2019-05-23T21:00:06.733Z,2.05
2019-05-23T21:02:37.499Z,5.83
2019-05-23T21:05:07.579Z,2.30
2019-05-23T21:07:38.965Z,3.62
2019-05-23T21:10:08.693Z,2.70
2019-05-23T21:12:38.622Z,2.50
2019-05-23T21:15:08.420Z,2.50
2019-05-23T21:17:38.300Z,2.12
2019-05-23T21:20:08.065Z,3.05
2019-05-23T21:22:37.964Z,3.22
2019-05-23T21:25:07.753Z,3.83
2019-05-23T21:27:37.464Z,2.67
2019-05-23T21:30:07.277Z,1.80
2019-05-23T21:32:36.994Z,2.00
2019-05-23T21:35:06.758Z,2.98
2019-05-23T21:37:36.444Z,3.00
2019-05-23T21:40:06.825Z,2.45
2019-05-23T21:42:47.300Z,2.47
2019-05-23T21:45:08.882Z,2.75
2019-05-23T21:47:38.621Z,2.67
2019-05-23T21:50:08.309Z,2.87
2019-05-23T21:52:37.982Z,5.72
2019-05-23T21:55:07.671Z,2.42
2019-05-23T21:57:37.371Z,2.00
2019-05-23T22:00:08.562Z,2.33
2019-05-23T22:02:39.855Z,3.42
2019-05-23T22:05:19.487Z,3.15
2019-05-23T22:07:49.180Z,2.08
2019-05-23T22:10:19.571Z,2.47
2019-05-23T22:13:03.358Z,3.62
2019-05-23T22:15:35.551Z,4.92
2019-05-23T22:18:06.425Z,2.80
2019-05-23T22:20:36.182Z,4.45
2019-05-23T22:23:06.933Z,3.52
2019-05-23T22:25:37.471Z,2.15
2019-05-23T22:28:08.313Z,2.55
2019-05-23T22:30:38.105Z,2.30
2019-05-23T22:33:07.825Z,2.83
2019-05-23T22:35:37.491Z,2.02
2019-05-23T22:38:07.573Z,3.05
2019-05-23T22:40:38.589Z,2.37
2019-05-23T22:43:20.660Z,2.65
2019-05-23T22:45:40.070Z,2.65
2019-05-23T22:48:09.806Z,4.97
2019-05-23T22:50:39.510Z,3.12
2019-05-23T22:53:09.286Z,2.80
2019-05-23T22:55:38.980Z,2.33
2019-05-23T22:58:08.646Z,3.25
2019-05-23T23:00:39.948Z,3.72
2019-05-23T23:03:09.608Z,2.70
2019-05-23T23:05:39.287Z,2.85
2019-05-23T23:08:09.131Z,2.17
2019-05-23T23:10:39.134Z,3.30
2019-05-23T23:13:08.865Z,5.20
2019-05-23T23:15:38.634Z,2.62
2019-05-23T23:18:08.387Z,2.77
2019-05-23T23:20:38.070Z,6.30
2019-05-23T23:23:07.730Z,3.62
2019-05-23T23:25:37.492Z,2.17
2019-05-23T23:28:07.152Z,3.37
2019-05-23T23:30:38.473Z,3.47
2019-05-23T23:33:08.116Z,3.47
2019-05-23T23:35:37.787Z,5.12
2019-05-23T23:38:07.451Z,2.10
2019-05-23T23:40:37.138Z,2.83
2019-05-23T23:43:06.813Z,4.33
2019-05-23T23:45:54.702Z,2.02
2019-05-23T23:48:41.939Z,5.20
2019-05-23T23:51:29.513Z,2.40
2019-05-23T23:54:16.993Z,2.00
2019-05-23T23:57:04.426Z,2.37
2019-05-23T23:59:33.191Z,2.55
